Time;durP1;ratioP1;P1;durP2;ratioP2;P2;SDS_P1;SDS_P2;PMS_P1;PMS_P2;Temp;Humidity;BMP_temperature;BMP_pressure;BME280_temperature;BME280_humidity;BME280_pressure;Samples;Min_cycle;Max_cycle;Signal;HPM_P1;HPM_P2
2022/03/27 00:00:18;;;;;;;;;45.25;32.00;;;;;15.20;37.08;102080.56;5054837;28;45563;-59
2022/03/27 00:02:44;;;;;;;;;36.50;32.00;;;;;15.20;37.13;102086.09;5036584;28;45415;-55
2022/03/27 00:05:10;;;;;;;;;43.00;35.00;;;;;15.06;36.82;102054.81;5037505;28;45403;-54
2022/03/27 00:07:35;;;;;;;;;49.80;35.60;;;;;15.25;37.56;102089.94;5054718;28;45289;-56
2022/03/27 00:10:01;;;;;;;;;44.00;34.50;;;;;15.22;37.34;102084.84;5054863;28;45424;-52
2022/03/27 00:12:27;;;;;;;;;39.50;35.00;;;;;15.25;37.07;102089.94;5054540;28;45434;-55
2022/03/27 00:14:52;;;;;;;;;23.20;15.80;;;;;15.26;37.19;102085.28;5037182;28;45516;-59
2022/03/27 00:17:18;;;;;;;;;38.50;32.50;;;;;15.26;37.21;102090.81;5054739;28;45527;-56
2022/03/27 00:19:44;;;;;;;;;48.50;37.75;;;;;15.21;37.12;102085.88;5055419;28;45425;-57
2022/03/27 00:22:09;;;;;;;;;48.00;36.00;;;;;15.10;37.45;102089.28;5058513;28;45432;-59
2022/03/27 00:24:35;;;;;;;;;44.50;35.00;;;;;15.07;37.78;102092.44;5058181;28;45356;-55
2022/03/27 00:27:00;;;;;;;;;46.25;35.25;;;;;15.01;37.36;102094.97;5057131;28;45500;-57
2022/03/27 00:29:26;;;;;;;;;43.25;32.75;;;;;14.97;37.66;102093.72;5039879;28;45676;-59
2022/03/27 00:31:51;;;;;;;;;39.75;32.50;;;;;14.90;38.17;102090.09;5057915;28;45425;-58
2022/03/27 00:34:19;;;;;;;;;50.25;35.50;;;;;14.85;38.13;102081.56;5057612;28;45836;-54
2022/03/27 00:36:45;;;;;;;;;44.80;34.80;;;;;14.80;38.17;102086.84;5058201;28;45344;-58
2022/03/27 00:39:11;;;;;;;;;41.00;36.40;;;;;14.75;38.13;102099.41;5057994;28;46581;-54
2022/03/27 00:41:36;;;;;;;;;42.75;36.00;;;;;14.77;37.96;102091.75;5039748;28;46030;-56
2022/03/27 00:44:02;;;;;;;;;42.75;33.25;;;;;14.69;38.55;102079.97;5057880;28;45362;-56
2022/03/27 00:46:28;;;;;;;;;41.25;33.50;;;;;14.73;38.34;102103.38;5058013;28;45312;-54
2022/03/27 00:48:54;;;;;;;;;50.00;35.25;;;;;14.71;38.54;102091.66;5057275;28;46071;-57
2022/03/27 00:51:19;;;;;;;;;45.25;35.00;;;;;14.77;38.80;102088.13;5056733;28;45381;-56
2022/03/27 00:53:45;;;;;;;;;47.50;36.25;;;;;14.77;38.71;102082.59;5057369;28;45464;-54
2022/03/27 00:56:10;;;;;;;;;42.25;35.00;;;;;14.59;38.67;102067.41;5037940;28;45383;-56
2022/03/27 00:58:36;;;;;;;;;42.50;35.25;;;;;14.62;38.88;102069.75;5035006;28;45846;-59
2022/03/27 01:01:02;;;;;;;;;36.20;32.20;;;;;14.72;38.85;102088.72;5055499;28;45353;-58
2022/03/27 01:03:28;;;;;;;;;45.75;34.75;;;;;14.55;38.61;102060.59;5057255;28;45331;-57
2022/03/27 01:05:57;;;;;;;;;38.25;29.50;;;;;14.66;38.57;102081.25;5057659;28;45600;-56
2022/03/27 01:11:12;;;;;;;;;48.40;37.80;;;;;14.49;39.06;102034.66;5057427;28;45384;-58
2022/03/27 01:13:48;;;;;;;;;43.20;36.40;;;;;14.69;38.51;102080.84;5057452;28;45398;-59
2022/03/27 01:16:39;;;;;;;;;42.20;33.00;;;;;14.56;39.28;102075.28;5071876;28;45192;-58
2022/03/27 01:19:06;;;;;;;;;38.80;34.60;;;;;14.31;38.58;102035.19;5048297;28;46618;-58
2022/03/27 01:21:33;;;;;;;;;39.80;33.00;;;;;14.31;38.97;102028.84;5039241;28;45205;-57
2022/03/27 01:23:58;;;;;;;;;47.00;37.40;;;;;14.57;39.27;102071.44;5072558;28;45542;-59
2022/03/27 01:26:24;;;;;;;;;44.75;32.75;;;;;14.50;39.67;102071.41;5057777;28;45686;-57
2022/03/27 01:28:51;;;;;;;;;43.50;35.25;;;;;14.48;39.61;102074.38;5056907;28;45365;-53
2022/03/27 01:31:17;;;;;;;;;44.80;34.60;;;;;14.09;39.69;102026.19;5037852;28;45506;-57
2022/03/27 01:33:43;;;;;;;;;46.00;36.20;;;;;14.10;40.18;102022.38;5072834;28;45424;-55
2022/03/27 01:36:08;;;;;;;;;48.50;36.50;;;;;14.27;40.26;102061.53;5057165;28;45372;-56
2022/03/27 01:38:34;;;;;;;;;42.25;33.75;;;;;14.10;40.27;102025.13;5056970;28;45374;-58
2022/03/27 01:41:00;;;;;;;;;48.40;35.60;;;;;14.39;39.95;102058.16;5056914;28;45369;-57
2022/03/27 01:43:25;;;;;;;;;45.50;37.00;;;;;14.20;39.96;102036.63;5072397;28;45538;-55
2022/03/27 01:45:51;;;;;;;;;36.50;33.25;;;;;14.12;39.68;102008.34;5057221;28;45635;-56
2022/03/27 01:48:16;;;;;;;;;40.00;33.25;;;;;14.23;40.52;102039.00;5056325;28;45415;-58
2022/03/27 01:50:41;;;;;;;;;45.25;36.25;;;;;14.25;40.07;102047.06;5039336;28;45386;-58
2022/03/27 01:53:07;;;;;;;;;52.50;37.25;;;;;14.23;40.72;102041.75;5056764;28;45243;-56
2022/03/27 01:55:32;;;;;;;;;44.00;35.00;;;;;14.22;40.30;102042.81;5056978;28;45503;-58
2022/03/27 01:57:58;;;;;;;;;52.50;40.00;;;;;14.18;40.40;102036.00;5056550;28;46636;-57
2022/03/27 02:00:23;;;;;;;;;45.00;36.00;;;;;14.20;40.60;102039.41;5056298;28;45234;-55
2022/03/27 02:02:49;;;;;;;;;46.00;39.00;;;;;14.23;40.84;102040.91;5038719;28;45311;-58
2022/03/27 02:05:14;;;;;;;;;49.50;36.75;;;;;14.23;40.69;102043.66;5072589;28;45695;-58
2022/03/27 02:07:45;;;;;;;;;53.75;38.00;;;;;14.23;40.42;102044.53;5054808;28;45649;-55
2022/03/27 02:10:10;;;;;;;;;45.00;35.80;;;;;14.23;40.16;102044.53;5072231;28;45809;-57
2022/03/27 02:12:36;;;;;;;;;38.75;34.50;;;;;14.20;40.83;102033.88;5056436;28;45303;-58
2022/03/27 02:15:04;;;;;;;;;48.00;37.75;;;;;14.25;40.78;102043.47;5072343;28;45177;-56
2022/03/27 02:17:30;;;;;;;;;34.00;30.20;;;;;14.24;40.64;102039.84;5056287;28;45580;-58
2022/03/27 02:19:55;;;;;;;;;35.75;34.00;;;;;14.18;41.29;102043.41;5038149;28;45449;-55
2022/03/27 02:22:21;;;;;;;;;47.00;36.75;;;;;13.91;41.53;102016.53;5056405;28;45283;-54
2022/03/27 02:24:46;;;;;;;;;45.00;35.25;;;;;13.96;41.45;102016.78;5038359;28;45596;-55
2022/03/27 02:27:12;;;;;;;;;39.75;35.25;;;;;14.12;41.31;102047.84;5056381;28;45510;-57
2022/03/27 02:29:37;;;;;;;;;38.75;35.50;;;;;14.08;41.34;102038.28;5055897;28;45502;-56
2022/03/27 02:32:03;;;;;;;;;44.25;35.25;;;;;13.96;41.80;102038.84;5056039;28;45406;-56
2022/03/27 02:34:28;;;;;;;;;49.50;35.25;;;;;14.10;41.50;102052.75;5055993;28;45600;-56
2022/03/27 02:36:54;;;;;;;;;49.00;38.00;;;;;14.09;41.75;102045.53;5055920;28;45674;-56
2022/03/27 02:39:20;;;;;;;;;40.00;35.00;;;;;14.05;41.79;102052.50;5056178;28;45351;-59
2022/03/27 02:41:45;;;;;;;;;43.00;35.75;;;;;14.05;41.83;102058.00;5056139;28;45414;-58
2022/03/27 02:44:12;;;;;;;;;51.75;38.25;;;;;14.02;41.98;102052.88;5055847;28;45411;-57
2022/03/27 02:46:38;;;;;;;;;52.80;35.80;;;;;14.01;42.13;102052.03;5055486;28;46300;-56
2022/03/27 02:49:03;;;;;;;;;51.75;39.00;;;;;13.93;42.22;102047.53;5055944;28;45812;-57
2022/03/27 02:51:29;;;;;;;;;47.25;36.25;;;;;13.85;41.80;102011.81;5056090;28;45354;-60
2022/03/27 02:53:54;;;;;;;;;41.75;34.75;;;;;13.93;42.10;102049.47;5056034;28;45592;-59
2022/03/27 02:56:20;;;;;;;;;46.50;36.25;;;;;13.75;42.79;102049.94;5055990;28;45410;-57
2022/03/27 02:58:45;;;;;;;;;55.25;37.50;;;;;13.80;42.72;102053.81;5055964;28;45287;-60
2022/03/27 03:01:11;;;;;;;;;45.25;32.00;;;;;13.90;42.27;102045.19;5031391;28;45687;-54
2022/03/27 03:03:37;;;;;;;;;41.25;35.75;;;;;13.94;42.07;102057.50;5037922;28;45523;-53
2022/03/27 03:06:04;;;;;;;;;42.00;36.25;;;;;13.86;42.50;102049.41;5037994;28;46785;-56
2022/03/27 03:08:29;;;;;;;;;39.80;34.00;;;;;13.83;42.50;102045.13;5017993;28;45486;-56
2022/03/27 03:10:56;;;;;;;;;42.50;35.75;;;;;13.80;42.57;102056.59;5035995;28;45278;-53
2022/03/27 03:13:22;;;;;;;;;40.00;33.60;;;;;13.80;42.69;102052.97;5036156;28;45320;-58
2022/03/27 03:15:47;;;;;;;;;44.25;31.00;;;;;13.79;42.72;102052.13;5035427;28;45938;-55
2022/03/27 03:18:13;;;;;;;;;43.00;36.50;;;;;13.72;43.06;102058.66;5035605;28;45247;-54
2022/03/27 03:20:39;;;;;;;;;46.50;36.75;;;;;13.46;42.81;102010.50;5035599;28;45285;-56
2022/03/27 03:23:04;;;;;;;;;41.00;34.25;;;;;13.73;42.91;102060.34;5018047;28;45513;-58
2022/03/27 03:25:30;;;;;;;;;38.25;31.00;;;;;13.67;42.81;102048.22;5035275;28;46347;-57
2022/03/27 03:27:56;;;;;;;;;36.80;34.20;;;;;13.68;42.99;102055.44;5035444;28;45331;-56
2022/03/27 03:30:22;;;;;;;;;39.50;33.75;;;;;13.77;42.97;102050.63;5035652;28;45413;-57
2022/03/27 03:32:48;;;;;;;;;45.40;33.60;;;;;13.73;42.72;102055.69;5017428;28;45593;-55
2022/03/27 03:35:14;;;;;;;;;42.25;34.50;;;;;13.66;42.82;102049.28;5033846;28;45512;-56
2022/03/27 03:37:39;;;;;;;;;39.75;33.50;;;;;13.41;43.01;102022.09;5035632;28;45430;-57
2022/03/27 03:40:07;;;;;;;;;38.25;33.50;;;;;13.51;43.42;102047.44;5035464;28;45509;-58
2022/03/27 03:42:35;;;;;;;;;44.60;33.80;;;;;13.43;43.88;102055.84;5035944;28;45257;-55
2022/03/27 03:45:01;;;;;;;;;36.40;31.40;;;;;13.39;44.10;102052.63;5035107;28;45315;-57
2022/03/27 03:47:27;;;;;;;;;38.75;36.00;;;;;13.44;43.56;102057.53;5034794;28;45573;-57
2022/03/27 03:49:52;;;;;;;;;37.50;33.25;;;;;13.48;43.79;102058.03;5035204;28;45458;-54
2022/03/27 03:52:18;;;;;;;;;42.25;34.00;;;;;13.26;43.98;102023.03;5035394;28;45335;-58
2022/03/27 03:54:44;;;;;;;;;41.00;33.75;;;;;13.42;43.83;102052.25;5034607;28;46355;-58
2022/03/27 03:57:09;;;;;;;;;41.50;32.75;;;;;13.35;44.13;102055.97;5038654;28;45307;-57
2022/03/27 03:59:36;;;;;;;;;36.25;31.25;;;;;13.32;44.07;102046.19;5038776;28;45382;-56
2022/03/27 04:02:03;;;;;;;;;44.20;29.00;;;;;13.34;43.79;102043.25;5038812;28;45443;-57
2022/03/27 04:04:30;;;;;;;;;43.00;35.80;;;;;13.40;44.08;102051.56;5038210;28;46424;-55
2022/03/27 04:06:56;;;;;;;;;37.20;34.20;;;;;13.42;43.90;102049.47;5043984;28;45322;-57
2022/03/27 04:09:21;;;;;;;;;44.80;34.40;;;;;13.41;43.77;102052.44;5057471;28;45581;-57
2022/03/27 04:11:47;;;;;;;;;40.25;33.25;;;;;13.40;43.82;102054.31;5040946;28;45411;-57
2022/03/27 04:14:13;;;;;;;;;38.75;32.00;;;;;13.44;44.01;102052.03;5040625;28;45436;-56
2022/03/27 04:16:38;;;;;;;;;42.25;33.50;;;;;13.38;43.73;102050.91;5058524;28;45421;-57
2022/03/27 04:19:05;;;;;;;;;45.00;35.75;;;;;13.28;44.29;102055.91;5040524;28;45367;-57
2022/03/27 04:21:31;;;;;;;;;42.20;33.00;;;;;13.22;44.45;102056.69;5059124;28;45342;-54
2022/03/27 04:23:56;;;;;;;;;35.40;31.40;;;;;13.13;44.41;102051.31;5058261;28;45310;-59
2022/03/27 04:26:22;;;;;;;;;36.75;33.50;;;;;13.16;44.80;102061.09;5058612;28;45239;-58
2022/03/27 04:28:47;;;;;;;;;30.75;26.25;;;;;13.13;44.61;102065.09;5058421;28;45212;-58
2022/03/27 04:31:13;;;;;;;;;45.25;35.50;;;;;13.23;44.40;102059.25;5058460;28;45311;-56
2022/03/27 04:33:39;;;;;;;;;40.25;28.75;;;;;13.27;44.39;102066.09;5058228;28;45395;-59
2022/03/27 04:36:04;;;;;;;;;39.25;33.75;;;;;13.21;44.55;102060.50;5058067;28;45374;-56
2022/03/27 04:38:30;;;;;;;;;36.25;33.00;;;;;13.08;44.82;102064.84;5058169;28;45299;-57
2022/03/27 04:40:55;;;;;;;;;41.25;33.75;;;;;13.11;44.72;102074.63;5058414;28;45336;-58
2022/03/27 04:43:22;;;;;;;;;34.75;32.00;;;;;13.17;44.59;102062.81;5058020;28;45450;-58
2022/03/27 04:45:48;;;;;;;;;34.20;28.80;;;;;13.21;44.55;102068.78;5057922;28;45508;-55
2022/03/27 04:48:14;;;;;;;;;35.00;29.60;;;;;13.11;44.37;102042.41;5057898;28;45383;-57
2022/03/27 04:50:39;;;;;;;;;35.75;29.50;;;;;13.23;44.60;102073.03;5058098;28;45370;-58
2022/03/27 04:53:05;;;;;;;;;37.50;32.00;;;;;13.24;44.36;102065.66;5056971;28;45436;-55
2022/03/27 04:55:31;;;;;;;;;38.75;31.25;;;;;13.22;44.38;102068.59;5057790;28;45426;-59
2022/03/27 04:57:56;;;;;;;;;33.00;27.00;;;;;13.13;44.54;102069.78;5056696;28;45414;-57
2022/03/27 05:00:22;;;;;;;;;33.50;29.00;;;;;13.09;44.48;102071.22;5058018;28;45323;-53
2022/03/27 05:02:47;;;;;;;;;33.50;27.75;;;;;13.06;45.13;102064.19;5073167;28;45777;-59
2022/03/27 05:05:13;;;;;;;;;35.00;27.00;;;;;12.99;45.18;102060.50;5057456;28;45432;-59
2022/03/27 05:07:39;;;;;;;;;36.50;30.25;;;;;13.04;45.09;102073.69;5057898;28;45333;-57
2022/03/27 05:10:05;;;;;;;;;34.80;30.60;;;;;12.86;44.80;102042.78;5058048;28;45389;-57
2022/03/27 05:12:31;;;;;;;;;31.00;27.00;;;;;13.13;44.73;102080.81;5039450;28;46334;-59
2022/03/27 05:14:57;;;;;;;;;33.75;31.00;;;;;13.16;44.76;102077.66;5057541;28;45323;-55
2022/03/27 05:17:22;;;;;;;;;32.25;26.75;;;;;12.97;44.66;102044.16;5058020;28;45412;-57
2022/03/27 05:19:48;;;;;;;;;36.25;30.50;;;;;13.12;44.44;102073.56;5057721;28;45480;-61
2022/03/27 05:22:14;;;;;;;;;35.75;32.00;;;;;13.21;44.41;102083.44;5057265;28;46017;-53
2022/03/27 05:24:40;;;;;;;;;39.20;32.60;;;;;12.95;44.65;102056.44;5039469;28;45452;-54
2022/03/27 05:27:05;;;;;;;;;23.25;23.25;;;;;13.09;44.92;102090.50;5057424;28;45460;-57
2022/03/27 05:29:31;;;;;;;;;36.25;30.50;;;;;13.05;44.81;102092.81;5039757;28;45623;-55
2022/03/27 05:31:58;;;;;;;;;27.25;23.00;;;;;12.85;45.02;102065.00;5057342;28;45536;-57
2022/03/27 05:34:24;;;;;;;;;35.80;30.40;;;;;13.02;44.99;102090.41;5039754;28;45378;-57
2022/03/27 05:36:49;;;;;;;;;28.60;26.40;;;;;13.01;44.98;102088.72;5057040;28;45411;-54
2022/03/27 05:39:15;;;;;;;;;35.00;29.25;;;;;12.95;45.15;102081.22;5057590;28;45313;-56
2022/03/27 05:41:40;;;;;;;;;39.75;32.00;;;;;13.00;45.06;102082.38;5057101;28;45704;-56
2022/03/27 05:44:06;;;;;;;;;33.75;31.00;;;;;12.93;45.40;102083.34;5057080;28;45315;-60
2022/03/27 05:46:31;;;;;;;;;37.25;29.25;;;;;12.67;45.35;102055.31;5057206;28;45343;-58
2022/03/27 05:48:57;;;;;;;;;34.50;29.50;;;;;12.91;45.46;102088.19;5039088;28;45471;-56
2022/03/27 05:51:22;;;;;;;;;31.25;30.00;;;;;12.90;45.29;102084.59;5039069;28;46156;-58
2022/03/27 05:53:48;;;;;;;;;37.50;31.00;;;;;12.99;44.90;102091.69;5038808;28;45611;-58
2022/03/27 05:56:13;;;;;;;;;37.00;29.25;;;;;12.88;45.48;102089.44;5056700;28;45360;-59
2022/03/27 05:58:39;;;;;;;;;33.25;29.25;;;;;12.88;45.84;102103.22;5039343;28;45555;-59
2022/03/27 06:01:05;;;;;;;;;33.50;31.00;;;;;12.88;45.55;102097.72;5056244;28;45410;-56
2022/03/27 06:03:31;;;;;;;;;33.00;28.20;;;;;12.87;45.19;102091.34;5056779;28;45429;-56
2022/03/27 06:05:56;;;;;;;;;35.50;29.00;;;;;12.92;45.32;102098.16;5056272;28;45350;-56
2022/03/27 06:08:22;;;;;;;;;33.75;25.25;;;;;12.86;45.26;102089.63;5056713;28;45348;-58
2022/03/27 06:10:49;;;;;;;;;34.00;31.25;;;;;12.94;45.44;102115.34;5055039;28;47424;-58
2022/03/27 06:13:16;;;;;;;;;32.60;27.00;;;;;12.70;45.33;102070.59;5056044;28;45406;-57
2022/03/27 06:15:41;;;;;;;;;33.20;28.20;;;;;13.05;45.21;102108.47;5056611;28;45969;-58
2022/03/27 06:18:10;;;;;;;;;35.00;27.75;;;;;12.92;45.54;102111.94;5055650;28;45493;-55
2022/03/27 06:20:36;;;;;;;;;31.80;27.40;;;;;12.90;45.42;102114.06;5055927;28;46272;-57
2022/03/27 06:23:01;;;;;;;;;37.75;26.75;;;;;12.77;45.72;102114.72;5037888;28;45454;-57
2022/03/27 06:25:27;;;;;;;;;34.50;30.00;;;;;12.80;45.79;102106.09;5056046;28;45402;-58
2022/03/27 06:27:53;;;;;;;;;37.00;30.80;;;;;12.82;45.41;102115.00;5056457;28;45620;-52
2022/03/27 06:30:20;;;;;;;;;37.50;30.25;;;;;12.84;45.88;102113.78;5056349;28;46277;-58
2022/03/27 06:32:46;;;;;;;;;30.80;27.80;;;;;12.66;45.96;102091.28;5056294;28;45391;-56
2022/03/27 06:35:12;;;;;;;;;31.25;27.75;;;;;12.67;46.05;102095.75;5056233;28;45441;-60
2022/03/27 06:37:38;;;;;;;;;31.40;26.80;;;;;12.56;46.09;102077.81;5055838;28;45331;-58
2022/03/27 06:40:05;;;;;;;;;36.00;29.00;;;;;12.90;45.63;102119.56;5028574;28;46025;-58
2022/03/27 06:42:31;;;;;;;;;34.40;31.80;;;;;12.79;45.81;102099.72;5036036;28;45389;-55
2022/03/27 06:44:57;;;;;;;;;31.50;27.00;;;;;12.81;45.72;102110.56;5056118;28;45372;-58
2022/03/27 06:47:23;;;;;;;;;33.00;27.25;;;;;12.71;45.73;102075.06;5056039;28;45272;-59
2022/03/27 06:49:49;;;;;;;;;38.00;29.00;;;;;12.93;45.66;102110.91;5055672;28;45659;-54
2022/03/27 06:52:15;;;;;;;;;34.80;28.80;;;;;12.96;45.67;102121.53;5037151;28;45425;-60
2022/03/27 06:54:41;;;;;;;;;36.40;27.20;;;;;12.82;45.88;102113.09;5055930;28;45381;-56
2022/03/27 06:57:06;;;;;;;;;36.75;28.50;;;;;12.68;46.29;102109.34;5055646;28;45362;-52
2022/03/27 07:03:01;;;;;;;;;35.25;29.50;;;;;12.67;46.42;102118.66;5037772;28;46575;-50
2022/03/27 07:05:02;;;;;;;;;29.60;27.60;;;;;12.44;46.17;102075.56;5055700;28;45734;-49
2022/03/27 07:07:28;;;;;;;;;39.40;32.20;;;;;12.42;46.30;102074.91;5037628;28;45489;-48
2022/03/27 07:09:54;;;;;;;;;30.50;29.50;;;;;12.73;46.42;102117.03;5055714;28;45354;-47
2022/03/27 07:12:19;;;;;;;;;37.25;29.75;;;;;12.70;45.73;102096.22;5055263;28;45415;-49
2022/03/27 07:14:46;;;;;;;;;38.75;31.50;;;;;12.58;45.90;102065.56;5037668;28;45394;-48
2022/03/27 07:17:15;;;;;;;;;33.20;31.80;;;;;12.81;46.21;102116.91;5055408;28;45499;-53
2022/03/27 07:19:40;;;;;;;;;31.60;28.80;;;;;12.86;46.11;102121.84;5055202;28;45990;-52
2022/03/27 07:22:06;;;;;;;;;32.50;30.75;;;;;12.19;45.79;102006.22;5054965;28;45446;-51
2022/03/27 07:24:31;;;;;;;;;35.75;29.75;;;;;13.02;45.40;102129.00;5055592;28;45369;-50
2022/03/27 07:26:57;;;;;;;;;36.50;32.25;;;;;13.10;45.52;102125.28;5055660;28;45727;-52
2022/03/27 07:29:22;;;;;;;;;37.75;33.00;;;;;12.93;45.36;102088.84;5054110;28;45548;-53
2022/03/27 07:31:49;;;;;;;;;34.00;31.75;;;;;12.86;45.31;102083.28;5030067;27;45413;-46
2022/03/27 07:34:16;;;;;;;;;40.20;33.40;;;;;12.99;45.63;102132.16;5039431;28;45402;-52
2022/03/27 07:36:41;;;;;;;;;36.80;29.60;;;;;12.98;45.55;102128.53;5055220;28;45966;-49
2022/03/27 07:39:07;;;;;;;;;43.25;34.00;;;;;13.09;45.29;102129.97;5055262;28;46370;-50
2022/03/27 07:41:32;;;;;;;;;35.25;31.25;;;;;13.09;45.39;102134.63;5025006;28;45687;-59
2022/03/27 07:43:58;;;;;;;;;39.25;33.50;;;;;13.17;45.22;102137.25;5049053;28;45401;-55
2022/03/27 07:46:24;;;;;;;;;35.75;31.00;;;;;12.98;45.05;102091.88;5046464;28;45551;-55
2022/03/27 07:48:49;;;;;;;;;35.50;28.50;;;;;13.11;45.13;102129.75;5037822;28;46169;-52
2022/03/27 07:51:15;;;;;;;;;36.25;31.25;;;;;13.06;45.21;102123.97;5045041;28;45524;-49
2022/03/27 07:53:40;;;;;;;;;35.25;27.75;;;;;13.05;45.08;102103.84;5050957;28;45431;-51
2022/03/27 07:56:06;;;;;;;;;38.75;34.00;;;;;13.35;44.80;102133.19;5048674;28;45638;-54
2022/03/27 07:58:31;;;;;;;;;37.25;29.25;;;;;13.45;44.61;102132.88;5050801;28;45786;-58
2022/03/27 08:00:57;;;;;;;;;34.75;33.00;;;;;13.52;44.46;102134.69;5049303;28;45864;-54
2022/03/27 08:03:22;;;;;;;;;36.50;29.00;;;;;13.54;44.78;102142.72;5049188;28;45527;-54
2022/03/27 08:05:48;;;;;;;;;35.50;31.75;;;;;13.58;43.98;102145.94;5049208;28;45679;-56
2022/03/27 08:08:13;;;;;;;;;35.00;31.75;;;;;13.53;44.34;102135.50;5049259;28;45689;-53
2022/03/27 08:10:39;;;;;;;;;40.50;34.25;;;;;13.35;44.54;102130.44;5050605;28;45610;-54
2022/03/27 08:13:04;;;;;;;;;38.50;32.00;;;;;13.31;44.64;102112.56;5032170;28;45786;-54
2022/03/27 08:15:30;;;;;;;;;36.50;31.25;;;;;13.51;44.27;102141.22;5050918;28;45370;-56
2022/03/27 08:17:56;;;;;;;;;36.50;33.25;;;;;13.55;44.21;102141.69;5032210;28;45580;-53
2022/03/27 08:20:22;;;;;;;;;35.00;30.00;;;;;13.61;44.23;102137.28;5049096;28;45978;-55
2022/03/27 08:22:48;;;;;;;;;34.40;29.20;;;;;13.68;43.92;102141.78;5050208;28;45461;-53
2022/03/27 08:26:55;;;;;;;;;29.50;28.50;;;;;13.63;43.53;102113.97;5049445;28;45340;-54
2022/03/27 08:27:59;;;;;;;;;34.20;30.80;;;;;13.77;43.79;102147.19;5050447;28;46011;-56
2022/03/27 08:30:24;;;;;;;;;36.00;29.50;;;;;13.74;43.47;102142.94;5047685;28;45912;-51
2022/03/27 08:32:50;;;;;;;;;37.50;31.00;;;;;13.76;43.46;102142.72;5050123;28;45399;-55
2022/03/27 08:35:15;;;;;;;;;42.00;33.50;;;;;13.53;43.34;102092.25;5050535;28;45509;-54
2022/03/27 08:37:41;;;;;;;;;35.25;31.75;;;;;13.85;43.41;102130.50;5050367;28;45434;-50
2022/03/27 08:40:07;;;;;;;;;33.75;30.00;;;;;13.85;43.38;102137.91;5039130;28;45883;-52
2022/03/27 08:42:33;;;;;;;;;27.40;26.60;;;;;13.78;43.56;102130.41;5051379;28;45504;-55
2022/03/27 08:44:58;;;;;;;;;34.25;27.25;;;;;13.90;43.56;102135.41;5035994;28;45588;-58
2022/03/27 08:47:25;;;;;;;;;37.75;31.75;;;;;13.96;43.17;102138.22;5033664;28;45489;-51
2022/03/27 08:49:56;;;;;;;;;40.00;30.00;;;;;13.83;43.32;102100.31;5050509;28;45512;-53
2022/03/27 08:52:39;;;;;;;;;35.60;31.40;;;;;13.92;42.91;102100.16;5032371;28;45804;-55
2022/03/27 08:55:20;;;;;;;;;35.20;30.20;;;;;14.22;42.20;102136.72;5055275;28;45680;-49
2022/03/27 08:57:54;;;;;;;;;27.40;23.80;;;;;14.18;42.62;102116.06;5056064;28;45848;-51
2022/03/27 09:00:21;;;;;;;;;32.80;29.40;;;;;14.14;41.85;102100.94;5040530;28;45894;-50
2022/03/27 09:02:47;;;;;;;;;38.00;29.60;;;;;14.38;41.85;102137.44;5057413;28;45747;-48
2022/03/27 09:05:13;;;;;;;;;26.20;24.40;;;;;14.44;42.02;102133.00;5055974;28;45564;-48
2022/03/27 09:07:38;;;;;;;;;33.50;29.75;;;;;14.59;41.49;102144.78;5056857;28;45395;-49
2022/03/27 09:10:06;;;;;;;;;33.25;28.00;;;;;14.61;40.63;102145.41;5057142;28;45496;-48
2022/03/27 09:12:33;;;;;;;;;35.40;27.40;;;;;14.66;40.69;102144.78;5039551;28;45341;-52
2022/03/27 09:14:58;;;;;;;;;36.00;30.20;;;;;14.74;40.21;102144.66;5039586;28;45468;-51
2022/03/27 09:17:24;;;;;;;;;28.75;26.75;;;;;14.84;40.23;102140.66;5022373;28;47705;-49
2022/03/27 09:19:50;;;;;;;;;36.75;30.00;;;;;14.95;40.60;102145.59;5057123;28;45386;-50
2022/03/27 09:22:21;;;;;;;;;35.60;27.40;;;;;14.95;40.32;102141.97;5057207;28;45386;-49
2022/03/27 09:24:49;;;;;;;;;43.80;35.40;;;;;15.09;40.11;102140.94;5056748;28;45324;-53
2022/03/27 09:27:16;;;;;;;;;29.20;24.00;;;;;15.19;39.53;102146.09;5019660;28;46278;-51
2022/03/27 09:30:06;;;;;;;;;30.20;29.40;;;;;15.19;40.04;102137.78;5047493;28;45452;-51
2022/03/27 09:32:35;;;;;;;;;29.20;28.20;;;;;15.29;40.38;102140.16;5057228;28;45200;-52
2022/03/27 09:35:11;;;;;;;;;36.40;29.60;;;;;15.22;39.00;102112.50;5057997;28;45466;-50
2022/03/27 09:37:41;;;;;;;;;37.20;30.80;;;;;15.49;39.10;102142.09;5057246;28;45794;-49
2022/03/27 09:40:10;;;;;;;;;32.20;24.80;;;;;15.34;39.38;102109.09;5057253;28;45333;-51
2022/03/27 09:42:40;;;;;;;;;33.40;30.80;;;;;15.62;38.75;102141.28;5057038;28;45365;-51
2022/03/27 09:45:11;;;;;;;;;27.40;22.60;;;;;15.71;38.86;102140.81;5057688;28;45311;-53
2022/03/27 09:47:37;;;;;;;;;30.80;29.60;;;;;15.82;38.84;102142.13;5057038;28;46497;-53
2022/03/27 09:50:02;;;;;;;;;31.00;27.75;;;;;15.85;39.18;102138.91;5057368;28;45962;-50
2022/03/27 09:52:28;;;;;;;;;28.25;26.50;;;;;15.92;38.71;102138.97;5055845;28;45368;-53
2022/03/27 09:54:57;;;;;;;;;31.75;27.25;;;;;15.96;38.39;102125.53;5033897;28;45505;-49
2022/03/27 09:57:25;;;;;;;;;35.80;28.80;;;;;15.88;38.12;102095.25;5036140;28;46361;-50
2022/03/27 09:59:51;;;;;;;;;34.00;27.80;;;;;16.20;38.18;102132.31;5054085;28;45397;-50
2022/03/27 10:02:17;;;;;;;;;32.20;28.60;;;;;16.24;38.12;102132.75;5054991;28;45456;-46
2022/03/27 10:04:52;;;;;;;;;34.00;29.00;;;;;16.30;37.97;102131.88;5055941;28;45463;-49
2022/03/27 10:07:19;;;;;;;;;33.00;29.60;;;;;16.36;37.77;102128.25;5055953;28;46096;-51
2022/03/27 10:09:44;;;;;;;;;28.40;27.20;;;;;16.45;37.71;102114.13;5054810;28;45434;-50
2022/03/27 10:12:11;;;;;;;;;38.75;32.50;;;;;16.57;37.42;102122.63;5071831;28;45437;-50
2022/03/27 10:14:36;;;;;;;;;36.40;32.20;;;;;16.68;37.31;102130.25;5054368;28;45497;-48
2022/03/27 10:17:02;;;;;;;;;37.75;31.50;;;;;16.80;37.64;102124.88;5070757;28;46896;-50
2022/03/27 10:19:32;;;;;;;;;34.25;32.00;;;;;16.90;37.04;102128.03;5055527;28;45325;-50
2022/03/27 10:21:58;;;;;;;;;34.20;27.40;;;;;16.93;36.76;102118.41;5035046;28;45897;-49
2022/03/27 10:24:26;;;;;;;;;34.60;27.80;;;;;17.00;37.18;102121.16;5034788;28;45477;-52
2022/03/27 10:26:55;;;;;;;;;36.80;31.40;;;;;16.88;37.15;102088.59;5069657;28;45965;-51
2022/03/27 10:29:21;;;;;;;;;35.20;28.60;;;;;17.09;36.86;102114.31;5060683;28;45785;-50
2022/03/27 10:31:46;;;;;;;;;32.25;28.00;;;;;17.24;36.58;102110.38;5051657;28;45497;-49
2022/03/27 10:34:13;;;;;;;;;36.50;30.25;;;;;17.32;36.30;102102.63;5049344;28;45483;-50
2022/03/27 10:36:45;;;;;;;;;32.00;27.20;;;;;17.43;36.45;102112.16;5069704;28;45676;-52
2022/03/27 10:39:26;;;;;;;;;36.80;31.00;;;;;17.51;36.22;102101.84;5052519;28;45461;-50
2022/03/27 10:42:16;;;;;;;;;40.20;31.40;;;;;17.27;35.86;102057.19;5054091;28;45370;-51
2022/03/27 10:44:47;;;;;;;;;40.20;33.40;;;;;17.70;36.17;102095.28;5049282;28;45421;-49
2022/03/27 10:47:14;;;;;;;;;38.80;31.80;;;;;17.82;35.94;102100.09;5053795;28;45994;-53
2022/03/27 10:49:40;;;;;;;;;35.00;29.40;;;;;17.86;35.43;102088.31;5053228;28;45452;-49
2022/03/27 10:52:06;;;;;;;;;38.80;30.80;;;;;17.59;35.68;102021.94;5053425;28;45359;-53
2022/03/27 10:54:33;;;;;;;;;31.25;28.75;;;;;18.09;35.48;102084.03;5054413;28;45659;-51
2022/03/27 10:56:59;;;;;;;;;36.20;30.80;;;;;18.20;35.33;102085.19;5043998;28;46456;-53
2022/03/27 10:59:26;;;;;;;;;38.20;32.80;;;;;18.23;34.71;102073.63;5056621;28;45420;-53
2022/03/27 11:01:53;;;;;;;;;34.80;32.20;;;;;18.39;34.13;102074.94;5064359;28;45716;-48
2022/03/27 11:04:22;;;;;;;;;34.80;26.40;;;;;17.94;33.52;101983.56;5051391;28;45587;-47
2022/03/27 11:06:48;;;;;;;;;30.00;29.60;;;;;18.38;33.30;102045.47;5054090;28;46808;-51
2022/03/27 11:09:40;;;;;;;;;35.00;28.80;;;;;18.58;33.85;102063.81;5053326;28;45383;-52
2022/03/27 11:12:30;;;;;;;;;40.80;31.80;;;;;18.59;33.74;102043.28;5048405;28;45323;-54